sensor_id;sensor_type;location;lat;lon;timestamp;pressure;altitude;pressure_sealevel;temperature;humidity
61898;BME280;47850;50.274;18.908;2023-04-15T00:00:58;96772.02;;;9.00;86.34
61898;BME280;47850;50.274;18.908;2023-04-15T00:03:27;96774.44;;;8.95;86.53
61898;BME280;47850;50.274;18.908;2023-04-15T00:05:57;96773.11;;;8.90;86.67
61898;BME280;47850;50.274;18.908;2023-04-15T00:08:25;96774.20;;;8.85;86.75
61898;BME280;47850;50.274;18.908;2023-04-15T00:10:53;96774.45;;;8.80;87.16
61898;BME280;47850;50.274;18.908;2023-04-15T00:13:20;96775.43;;;8.75;87.51
61898;BME280;47850;50.274;18.908;2023-04-15T00:15:48;96771.92;;;8.69;87.65
61898;BME280;47850;50.274;18.908;2023-04-15T00:18:16;96775.27;;;8.63;87.97
61898;BME280;47850;50.274;18.908;2023-04-15T00:20:44;96785.96;;;8.58;88.05
61898;BME280;47850;50.274;18.908;2023-04-15T00:23:12;96782.48;;;8.53;88.08
61898;BME280;47850;50.274;18.908;2023-04-15T00:25:40;96789.32;;;8.49;88.51
61898;BME280;47850;50.274;18.908;2023-04-15T00:28:08;96789.87;;;8.45;88.71
61898;BME280;47850;50.274;18.908;2023-04-15T00:30:35;96792.36;;;8.43;88.89
61898;BME280;47850;50.274;18.908;2023-04-15T00:33:03;96793.92;;;8.41;89.01
61898;BME280;47850;50.274;18.908;2023-04-15T00:35:31;96798.18;;;8.40;89.12
61898;BME280;47850;50.274;18.908;2023-04-15T00:37:59;96804.77;;;8.40;89.27
61898;BME280;47850;50.274;18.908;2023-04-15T00:40:27;96806.88;;;8.40;89.07
61898;BME280;47850;50.274;18.908;2023-04-15T00:42:54;96813.38;;;8.40;89.01
61898;BME280;47850;50.274;18.908;2023-04-15T00:45:22;96814.71;;;8.40;89.04
61898;BME280;47850;50.274;18.908;2023-04-15T00:47:50;96819.66;;;8.40;89.30
61898;BME280;47850;50.274;18.908;2023-04-15T00:50:18;96821.70;;;8.40;89.15
61898;BME280;47850;50.274;18.908;2023-04-15T00:52:46;96817.08;;;8.39;89.23
61898;BME280;47850;50.274;18.908;2023-04-15T00:55:14;96818.45;;;8.38;89.16
61898;BME280;47850;50.274;18.908;2023-04-15T00:57:43;96823.17;;;8.36;88.97
61898;BME280;47850;50.274;18.908;2023-04-15T01:00:11;96824.83;;;8.34;88.88
61898;BME280;47850;50.274;18.908;2023-04-15T01:02:39;96827.92;;;8.31;88.85
61898;BME280;47850;50.274;18.908;2023-04-15T01:05:07;96828.99;;;8.28;88.90
61898;BME280;47850;50.274;18.908;2023-04-15T01:07:36;96831.34;;;8.27;88.94
61898;BME280;47850;50.274;18.908;2023-04-15T01:10:04;96829.80;;;8.25;89.08
61898;BME280;47850;50.274;18.908;2023-04-15T01:12:32;96830.20;;;8.23;89.17
61898;BME280;47850;50.274;18.908;2023-04-15T01:15:00;96828.11;;;8.21;89.17
61898;BME280;47850;50.274;18.908;2023-04-15T01:17:28;96827.66;;;8.19;89.25
61898;BME280;47850;50.274;18.908;2023-04-15T01:19:57;96828.75;;;8.19;89.30
61898;BME280;47850;50.274;18.908;2023-04-15T01:22:25;96819.40;;;8.18;89.38
61898;BME280;47850;50.274;18.908;2023-04-15T01:25:00;96822.87;;;8.17;89.43
61898;BME280;47850;50.274;18.908;2023-04-15T01:27:33;96825.39;;;8.13;89.35
61898;BME280;47850;50.274;18.908;2023-04-15T01:30:02;96828.96;;;8.11;89.49
61898;BME280;47850;50.274;18.908;2023-04-15T01:32:31;96824.84;;;8.08;89.61
61898;BME280;47850;50.274;18.908;2023-04-15T01:34:59;96824.67;;;8.06;89.80
61898;BME280;47850;50.274;18.908;2023-04-15T01:37:27;96824.11;;;8.05;89.85
61898;BME280;47850;50.274;18.908;2023-04-15T01:39:56;96828.81;;;8.07;89.54
61898;BME280;47850;50.274;18.908;2023-04-15T01:42:25;96831.73;;;8.08;89.19
61898;BME280;47850;50.274;18.908;2023-04-15T01:44:52;96833.60;;;8.11;88.79
61898;BME280;47850;50.274;18.908;2023-04-15T01:47:21;96831.15;;;8.12;88.63
61898;BME280;47850;50.274;18.908;2023-04-15T01:49:49;96828.85;;;8.12;88.66
61898;BME280;47850;50.274;18.908;2023-04-15T01:52:16;96833.89;;;8.13;88.65
61898;BME280;47850;50.274;18.908;2023-04-15T01:54:44;96838.00;;;8.10;88.62
61898;BME280;47850;50.274;18.908;2023-04-15T01:57:13;96838.02;;;8.09;88.60
61898;BME280;47850;50.274;18.908;2023-04-15T01:59:41;96837.74;;;8.07;88.36
61898;BME280;47850;50.274;18.908;2023-04-15T02:02:08;96842.54;;;8.07;87.96
61898;BME280;47850;50.274;18.908;2023-04-15T02:04:37;96844.47;;;8.07;87.85
61898;BME280;47850;50.274;18.908;2023-04-15T02:07:04;96842.55;;;8.03;87.79
61898;BME280;47850;50.274;18.908;2023-04-15T02:09:32;96852.64;;;8.01;87.89
61898;BME280;47850;50.274;18.908;2023-04-15T02:12:00;96861.51;;;7.99;87.80
61898;BME280;47850;50.274;18.908;2023-04-15T02:14:28;96864.26;;;7.98;87.76
61898;BME280;47850;50.274;18.908;2023-04-15T02:16:56;96866.77;;;7.96;87.51
61898;BME280;47850;50.274;18.908;2023-04-15T02:19:23;96874.92;;;7.95;87.38
61898;BME280;47850;50.274;18.908;2023-04-15T02:21:51;96881.15;;;7.93;87.11
61898;BME280;47850;50.274;18.908;2023-04-15T02:24:19;96882.41;;;7.91;86.97
61898;BME280;47850;50.274;18.908;2023-04-15T02:26:47;96884.34;;;7.89;86.68
61898;BME280;47850;50.274;18.908;2023-04-15T02:29:15;96880.70;;;7.87;86.46
61898;BME280;47850;50.274;18.908;2023-04-15T02:31:43;96878.94;;;7.85;86.21
61898;BME280;47850;50.274;18.908;2023-04-15T02:34:11;96879.27;;;7.84;86.21
61898;BME280;47850;50.274;18.908;2023-04-15T02:36:40;96876.94;;;7.81;86.28
61898;BME280;47850;50.274;18.908;2023-04-15T02:39:08;96873.88;;;7.78;86.05
61898;BME280;47850;50.274;18.908;2023-04-15T02:41:36;96875.16;;;7.75;85.84
61898;BME280;47850;50.274;18.908;2023-04-15T02:44:04;96884.61;;;7.72;85.58
61898;BME280;47850;50.274;18.908;2023-04-15T02:46:33;96889.33;;;7.70;85.27
61898;BME280;47850;50.274;18.908;2023-04-15T02:49:01;96884.17;;;7.67;85.14
61898;BME280;47850;50.274;18.908;2023-04-15T02:51:30;96887.49;;;7.64;84.82
61898;BME280;47850;50.274;18.908;2023-04-15T02:54:00;96891.17;;;7.61;84.75
61898;BME280;47850;50.274;18.908;2023-04-15T02:56:28;96893.81;;;7.57;84.35
61898;BME280;47850;50.274;18.908;2023-04-15T02:58:57;96895.57;;;7.54;84.23
61898;BME280;47850;50.274;18.908;2023-04-15T03:04:49;96904.94;;;7.45;83.79
61898;BME280;47850;50.274;18.908;2023-04-15T03:07:18;96911.18;;;7.43;83.39
61898;BME280;47850;50.274;18.908;2023-04-15T03:09:46;96911.48;;;7.38;83.26
61898;BME280;47850;50.274;18.908;2023-04-15T03:12:14;96917.11;;;7.35;82.63
61898;BME280;47850;50.274;18.908;2023-04-15T03:14:42;96917.77;;;7.32;82.27
61898;BME280;47850;50.274;18.908;2023-04-15T03:17:10;96917.73;;;7.29;81.83
61898;BME280;47850;50.274;18.908;2023-04-15T03:19:38;96918.95;;;7.25;82.13
61898;BME280;47850;50.274;18.908;2023-04-15T03:22:05;96920.61;;;7.19;82.24
61898;BME280;47850;50.274;18.908;2023-04-15T03:24:33;96925.23;;;7.14;82.19
61898;BME280;47850;50.274;18.908;2023-04-15T03:27:01;96924.62;;;7.11;82.12
61898;BME280;47850;50.274;18.908;2023-04-15T03:29:30;96921.86;;;7.08;82.17
61898;BME280;47850;50.274;18.908;2023-04-15T03:31:58;96917.42;;;7.06;82.25
61898;BME280;47850;50.274;18.908;2023-04-15T03:34:26;96922.95;;;7.04;82.24
61898;BME280;47850;50.274;18.908;2023-04-15T03:36:54;96924.20;;;7.02;82.23
61898;BME280;47850;50.274;18.908;2023-04-15T03:39:22;96932.35;;;7.01;82.20
61898;BME280;47850;50.274;18.908;2023-04-15T03:41:50;96929.91;;;6.98;82.02
61898;BME280;47850;50.274;18.908;2023-04-15T03:44:18;96937.89;;;6.94;81.99
61898;BME280;47850;50.274;18.908;2023-04-15T03:46:46;96938.86;;;6.90;81.92
61898;BME280;47850;50.274;18.908;2023-04-15T03:49:13;96944.67;;;6.83;82.16
61898;BME280;47850;50.274;18.908;2023-04-15T03:51:41;96948.66;;;6.77;82.17
61898;BME280;47850;50.274;18.908;2023-04-15T03:54:09;96950.45;;;6.71;82.27
61898;BME280;47850;50.274;18.908;2023-04-15T03:56:38;96951.06;;;6.66;82.43
61898;BME280;47850;50.274;18.908;2023-04-15T03:59:05;96949.48;;;6.60;82.63
61898;BME280;47850;50.274;18.908;2023-04-15T04:01:33;96953.39;;;6.54;82.89
61898;BME280;47850;50.274;18.908;2023-04-15T04:04:01;96956.88;;;6.51;82.95
61898;BME280;47850;50.274;18.908;2023-04-15T04:06:29;96958.50;;;6.47;83.08
61898;BME280;47850;50.274;18.908;2023-04-15T04:08:57;96964.37;;;6.43;83.22
61898;BME280;47850;50.274;18.908;2023-04-15T04:11:25;96970.24;;;6.41;83.57
61898;BME280;47850;50.274;18.908;2023-04-15T04:13:54;96966.55;;;6.40;83.66
61898;BME280;47850;50.274;18.908;2023-04-15T04:16:22;96967.44;;;6.39;83.90
61898;BME280;47850;50.274;18.908;2023-04-15T04:18:50;96966.20;;;6.39;84.06
61898;BME280;47850;50.274;18.908;2023-04-15T04:21:17;96964.39;;;6.40;84.18
61898;BME280;47850;50.274;18.908;2023-04-15T04:23:46;96963.33;;;6.41;84.34
61898;BME280;47850;50.274;18.908;2023-04-15T04:26:14;96965.45;;;6.42;84.50
61898;BME280;47850;50.274;18.908;2023-04-15T04:28:42;96964.83;;;6.43;84.61
61898;BME280;47850;50.274;18.908;2023-04-15T04:31:09;96973.94;;;6.46;84.55
61898;BME280;47850;50.274;18.908;2023-04-15T04:33:38;96977.61;;;6.49;84.57
61898;BME280;47850;50.274;18.908;2023-04-15T04:36:06;96975.38;;;6.53;84.49
61898;BME280;47850;50.274;18.908;2023-04-15T04:38:34;96969.44;;;6.55;84.33
61898;BME280;47850;50.274;18.908;2023-04-15T04:41:01;96973.23;;;6.59;84.37
61898;BME280;47850;50.274;18.908;2023-04-15T04:43:29;96976.66;;;6.64;84.29
61898;BME280;47850;50.274;18.908;2023-04-15T04:45:57;96973.56;;;6.67;84.17
61898;BME280;47850;50.274;18.908;2023-04-15T04:48:25;96984.39;;;6.70;84.12
61898;BME280;47850;50.274;18.908;2023-04-15T04:50:53;96987.67;;;6.73;83.88
61898;BME280;47850;50.274;18.908;2023-04-15T04:53:21;96984.46;;;6.78;83.70
61898;BME280;47850;50.274;18.908;2023-04-15T04:55:49;96990.35;;;6.83;83.69
61898;BME280;47850;50.274;18.908;2023-04-15T04:58:17;96989.47;;;6.89;83.61
61898;BME280;47850;50.274;18.908;2023-04-15T05:00:45;96993.73;;;6.94;83.68
61898;BME280;47850;50.274;18.908;2023-04-15T05:03:13;96995.04;;;7.00;83.53
61898;BME280;47850;50.274;18.908;2023-04-15T05:05:41;96994.41;;;7.06;83.56
61898;BME280;47850;50.274;18.908;2023-04-15T05:08:09;96997.09;;;7.12;83.51
61898;BME280;47850;50.274;18.908;2023-04-15T05:10:36;96994.96;;;7.19;83.38
61898;BME280;47850;50.274;18.908;2023-04-15T05:13:04;96995.86;;;7.26;83.32
61898;BME280;47850;50.274;18.908;2023-04-15T05:15:32;97001.19;;;7.32;83.19
61898;BME280;47850;50.274;18.908;2023-04-15T05:18:01;97004.13;;;7.37;83.13
61898;BME280;47850;50.274;18.908;2023-04-15T05:20:29;97011.19;;;7.44;82.92
61898;BME280;47850;50.274;18.908;2023-04-15T05:22:57;97012.34;;;7.49;82.78
61898;BME280;47850;50.274;18.908;2023-04-15T05:25:25;97003.48;;;7.57;82.76
61898;BME280;47850;50.274;18.908;2023-04-15T05:27:53;97005.15;;;7.64;82.60
61898;BME280;47850;50.274;18.908;2023-04-15T05:30:21;97004.64;;;7.68;82.67
61898;BME280;47850;50.274;18.908;2023-04-15T05:32:49;97005.63;;;7.72;82.47
61898;BME280;47850;50.274;18.908;2023-04-15T05:35:17;97005.52;;;7.77;82.51
61898;BME280;47850;50.274;18.908;2023-04-15T05:37:44;97004.39;;;7.80;82.32
61898;BME280;47850;50.274;18.908;2023-04-15T05:40:12;97007.48;;;7.84;82.07
61898;BME280;47850;50.274;18.908;2023-04-15T05:42:40;97012.75;;;7.87;81.97
61898;BME280;47850;50.274;18.908;2023-04-15T05:45:08;97015.55;;;7.93;82.05
61898;BME280;47850;50.274;18.908;2023-04-15T05:47:37;97013.20;;;8.01;81.88
61898;BME280;47850;50.274;18.908;2023-04-15T05:50:05;97009.67;;;8.08;81.78
61898;BME280;47850;50.274;18.908;2023-04-15T05:52:33;97009.38;;;8.12;81.91
61898;BME280;47850;50.274;18.908;2023-04-15T05:55:00;97013.08;;;8.18;81.79
61898;BME280;47850;50.274;18.908;2023-04-15T05:57:28;97015.66;;;8.21;81.65
61898;BME280;47850;50.274;18.908;2023-04-15T05:59:56;97015.09;;;8.24;81.53
61898;BME280;47850;50.274;18.908;2023-04-15T06:02:24;97022.48;;;8.30;81.41
61898;BME280;47850;50.274;18.908;2023-04-15T06:04:53;97026.98;;;8.36;81.62
61898;BME280;47850;50.274;18.908;2023-04-15T06:07:20;97032.05;;;8.43;81.49
61898;BME280;47850;50.274;18.908;2023-04-15T06:09:48;97033.48;;;8.52;81.34
61898;BME280;47850;50.274;18.908;2023-04-15T06:12:16;97035.84;;;8.64;81.37
61898;BME280;47850;50.274;18.908;2023-04-15T06:14:43;97039.40;;;8.75;80.88
61898;BME280;47850;50.274;18.908;2023-04-15T06:17:11;97043.52;;;8.86;80.29
61898;BME280;47850;50.274;18.908;2023-04-15T06:19:41;97049.72;;;8.99;79.82
61898;BME280;47850;50.274;18.908;2023-04-15T06:22:09;97048.35;;;9.07;79.26
61898;BME280;47850;50.274;18.908;2023-04-15T06:24:36;97047.73;;;9.17;78.99
61898;BME280;47850;50.274;18.908;2023-04-15T06:27:04;97052.38;;;9.28;77.69
61898;BME280;47850;50.274;18.908;2023-04-15T06:29:32;97050.49;;;9.42;77.08
61898;BME280;47850;50.274;18.908;2023-04-15T06:32:00;97051.77;;;9.55;76.53
61898;BME280;47850;50.274;18.908;2023-04-15T06:34:28;97055.77;;;9.64;75.84
61898;BME280;47850;50.274;18.908;2023-04-15T06:36:55;97058.20;;;9.72;74.96
61898;BME280;47850;50.274;18.908;2023-04-15T06:39:24;97058.25;;;9.78;74.97
61898;BME280;47850;50.274;18.908;2023-04-15T06:41:52;97058.79;;;9.81;74.64
61898;BME280;47850;50.274;18.908;2023-04-15T06:44:20;97060.73;;;9.81;74.56
61898;BME280;47850;50.274;18.908;2023-04-15T06:46:47;97064.29;;;9.80;72.68
61898;BME280;47850;50.274;18.908;2023-04-15T06:49:15;97066.21;;;9.79;71.84
61898;BME280;47850;50.274;18.908;2023-04-15T06:51:43;97069.02;;;9.80;71.47
61898;BME280;47850;50.274;18.908;2023-04-15T06:54:12;97071.63;;;9.81;71.18
61898;BME280;47850;50.274;18.908;2023-04-15T06:56:39;97065.38;;;9.80;70.47
61898;BME280;47850;50.274;18.908;2023-04-15T06:59:08;97067.75;;;9.84;70.48
61898;BME280;47850;50.274;18.908;2023-04-15T07:01:36;97070.74;;;9.90;70.23
61898;BME280;47850;50.274;18.908;2023-04-15T07:04:04;97076.94;;;9.91;70.08
61898;BME280;47850;50.274;18.908;2023-04-15T07:06:32;97080.81;;;9.98;70.22
61898;BME280;47850;50.274;18.908;2023-04-15T07:09:00;97079.48;;;10.06;70.28
61898;BME280;47850;50.274;18.908;2023-04-15T07:11:29;97079.45;;;10.11;70.12
61898;BME280;47850;50.274;18.908;2023-04-15T07:13:57;97083.16;;;10.09;69.39
61898;BME280;47850;50.274;18.908;2023-04-15T07:16:25;97085.11;;;10.04;69.75
61898;BME280;47850;50.274;18.908;2023-04-15T07:18:53;97088.50;;;10.03;69.28
61898;BME280;47850;50.274;18.908;2023-04-15T07:21:23;97090.61;;;10.03;69.62
61898;BME280;47850;50.274;18.908;2023-04-15T07:23:51;97090.40;;;10.09;69.57
61898;BME280;47850;50.274;18.908;2023-04-15T07:26:19;97089.79;;;10.18;68.83
61898;BME280;47850;50.274;18.908;2023-04-15T07:28:47;97091.23;;;10.21;67.87
61898;BME280;47850;50.274;18.908;2023-04-15T07:31:15;97090.91;;;10.27;67.99
61898;BME280;47850;50.274;18.908;2023-04-15T07:33:44;97085.73;;;10.35;67.69
61898;BME280;47850;50.274;18.908;2023-04-15T07:36:12;97087.30;;;10.43;66.68
61898;BME280;47850;50.274;18.908;2023-04-15T07:38:40;97087.80;;;10.47;66.54
61898;BME280;47850;50.274;18.908;2023-04-15T07:41:08;97088.98;;;10.50;66.18
61898;BME280;47850;50.274;18.908;2023-04-15T07:43:37;97090.11;;;10.52;66.07
61898;BME280;47850;50.274;18.908;2023-04-15T07:46:05;97095.69;;;10.56;66.60
61898;BME280;47850;50.274;18.908;2023-04-15T07:48:33;97092.73;;;10.56;66.15
61898;BME280;47850;50.274;18.908;2023-04-15T07:51:01;97088.48;;;10.55;66.05
61898;BME280;47850;50.274;18.908;2023-04-15T07:53:30;97087.80;;;10.58;66.18
61898;BME280;47850;50.274;18.908;2023-04-15T07:55:57;97085.52;;;10.62;66.01
61898;BME280;47850;50.274;18.908;2023-04-15T07:58:25;97090.33;;;10.67;65.97
61898;BME280;47850;50.274;18.908;2023-04-15T08:00:54;97087.70;;;10.71;65.83
61898;BME280;47850;50.274;18.908;2023-04-15T08:03:21;97090.53;;;10.78;65.51
61898;BME280;47850;50.274;18.908;2023-04-15T08:05:50;97091.09;;;10.81;64.77
61898;BME280;47850;50.274;18.908;2023-04-15T08:08:17;97088.48;;;10.80;64.72
61898;BME280;47850;50.274;18.908;2023-04-15T08:10:45;97087.64;;;10.83;64.64
61898;BME280;47850;50.274;18.908;2023-04-15T08:13:13;97087.95;;;10.89;64.48
61898;BME280;47850;50.274;18.908;2023-04-15T08:15:41;97090.77;;;10.98;64.49
61898;BME280;47850;50.274;18.908;2023-04-15T08:18:09;97091.42;;;11.02;63.41
61898;BME280;47850;50.274;18.908;2023-04-15T08:20:37;97090.56;;;11.10;63.66
61898;BME280;47850;50.274;18.908;2023-04-15T08:23:05;97089.21;;;11.25;62.97
61898;BME280;47850;50.274;18.908;2023-04-15T08:25:33;97090.27;;;11.35;62.02
61898;BME280;47850;50.274;18.908;2023-04-15T08:28:03;97086.96;;;11.44;61.64
61898;BME280;47850;50.274;18.908;2023-04-15T08:30:33;97087.20;;;11.50;61.40
61898;BME280;47850;50.274;18.908;2023-04-15T08:33:01;97088.89;;;11.52;60.81
61898;BME280;47850;50.274;18.908;2023-04-15T08:35:29;97091.86;;;11.55;60.34
61898;BME280;47850;50.274;18.908;2023-04-15T08:37:57;97088.11;;;11.65;60.22
61898;BME280;47850;50.274;18.908;2023-04-15T08:40:26;97087.48;;;11.78;59.55
61898;BME280;47850;50.274;18.908;2023-04-15T08:42:58;97085.80;;;11.90;59.01
61898;BME280;47850;50.274;18.908;2023-04-15T08:45:27;97089.98;;;11.97;58.27
61898;BME280;47850;50.274;18.908;2023-04-15T08:47:57;97086.70;;;12.01;57.44
61898;BME280;47850;50.274;18.908;2023-04-15T08:50:25;97088.95;;;12.03;57.65
61898;BME280;47850;50.274;18.908;2023-04-15T08:52:58;97091.88;;;12.15;57.40
61898;BME280;47850;50.274;18.908;2023-04-15T08:55:29;97090.30;;;12.36;57.31
61898;BME280;47850;50.274;18.908;2023-04-15T08:58:01;97087.92;;;12.57;56.78
61898;BME280;47850;50.274;18.908;2023-04-15T09:00:30;97089.02;;;12.72;54.19
61898;BME280;47850;50.274;18.908;2023-04-15T09:02:59;97097.17;;;12.82;52.39
61898;BME280;47850;50.274;18.908;2023-04-15T09:05:31;97099.35;;;12.97;51.80
61898;BME280;47850;50.274;18.908;2023-04-15T09:07:59;97098.14;;;13.08;50.13
61898;BME280;47850;50.274;18.908;2023-04-15T09:10:28;97094.56;;;13.13;49.81
61898;BME280;47850;50.274;18.908;2023-04-15T09:12:57;97094.60;;;13.24;49.61
61898;BME280;47850;50.274;18.908;2023-04-15T09:15:25;97098.56;;;13.35;49.95
61898;BME280;47850;50.274;18.908;2023-04-15T09:17:56;97101.04;;;13.33;47.38
61898;BME280;47850;50.274;18.908;2023-04-15T09:20:24;97103.57;;;13.26;49.19
61898;BME280;47850;50.274;18.908;2023-04-15T09:22:52;97099.75;;;13.27;48.38
61898;BME280;47850;50.274;18.908;2023-04-15T09:27:53;97101.98;;;13.42;47.57
61898;BME280;47850;50.274;18.908;2023-04-15T09:30:22;97099.30;;;13.62;47.74
61898;BME280;47850;50.274;18.908;2023-04-15T09:32:55;97098.99;;;13.78;47.64
61898;BME280;47850;50.274;18.908;2023-04-15T09:35:25;97103.30;;;13.98;47.03
61898;BME280;47850;50.274;18.908;2023-04-15T09:38:15;97101.27;;;14.13;46.52
61898;BME280;47850;50.274;18.908;2023-04-15T09:40:42;97100.40;;;14.35;46.30
61898;BME280;47850;50.274;18.908;2023-04-15T09:43:09;97097.80;;;14.52;45.45
61898;BME280;47850;50.274;18.908;2023-04-15T09:45:47;97100.91;;;14.66;45.50
61898;BME280;47850;50.274;18.908;2023-04-15T09:48:25;97102.02;;;14.79;45.03
61898;BME280;47850;50.274;18.908;2023-04-15T09:50:57;97103.12;;;14.79;44.03
61898;BME280;47850;50.274;18.908;2023-04-15T09:53:25;97102.09;;;14.79;44.69
61898;BME280;47850;50.274;18.908;2023-04-15T09:55:57;97099.63;;;14.89;44.98
61898;BME280;47850;50.274;18.908;2023-04-15T09:58:32;97098.02;;;15.06;45.27
61898;BME280;47850;50.274;18.908;2023-04-15T10:01:03;97098.11;;;15.14;44.34
61898;BME280;47850;50.274;18.908;2023-04-15T10:03:34;97096.35;;;15.27;44.38
61898;BME280;47850;50.274;18.908;2023-04-15T10:06:03;97088.54;;;15.39;43.99
61898;BME280;47850;50.274;18.908;2023-04-15T10:08:33;97092.04;;;15.53;43.81
61898;BME280;47850;50.274;18.908;2023-04-15T10:11:02;97088.52;;;15.71;42.57
61898;BME280;47850;50.274;18.908;2023-04-15T10:13:31;97086.33;;;15.88;42.68
61898;BME280;47850;50.274;18.908;2023-04-15T10:16:07;97088.07;;;15.91;41.05
61898;BME280;47850;50.274;18.908;2023-04-15T10:18:44;97085.61;;;15.97;40.77
61898;BME280;47850;50.274;18.908;2023-04-15T10:21:13;97085.79;;;15.99;40.76
61898;BME280;47850;50.274;18.908;2023-04-15T10:23:45;97084.11;;;16.07;41.28
61898;BME280;47850;50.274;18.908;2023-04-15T10:26:13;97088.59;;;16.19;41.06
61898;BME280;47850;50.274;18.908;2023-04-15T10:28:42;97089.58;;;16.29;40.74
61898;BME280;47850;50.274;18.908;2023-04-15T10:31:13;97087.11;;;16.36;41.20
61898;BME280;47850;50.274;18.908;2023-04-15T10:33:45;97082.98;;;16.42;40.37
61898;BME280;47850;50.274;18.908;2023-04-15T10:36:14;97085.79;;;16.54;41.55
61898;BME280;47850;50.274;18.908;2023-04-15T10:38:44;97084.52;;;16.69;41.03
61898;BME280;47850;50.274;18.908;2023-04-15T10:41:23;97083.95;;;16.81;41.10
61898;BME280;47850;50.274;18.908;2023-04-15T10:44:02;97083.45;;;16.92;40.45
61898;BME280;47850;50.274;18.908;2023-04-15T10:46:44;97085.09;;;17.05;40.11
61898;BME280;47850;50.274;18.908;2023-04-15T10:49:16;97083.00;;;17.25;40.10
61898;BME280;47850;50.274;18.908;2023-04-15T10:51:52;97082.79;;;17.39;39.47
61898;BME280;47850;50.274;18.908;2023-04-15T10:57:06;97083.52;;;17.50;38.34
61898;BME280;47850;50.274;18.908;2023-04-15T10:59:36;97087.92;;;17.54;39.18
61898;BME280;47850;50.274;18.908;2023-04-15T11:02:06;97086.99;;;17.58;39.10
61898;BME280;47850;50.274;18.908;2023-04-15T11:04:51;97085.42;;;17.62;38.77
61898;BME280;47850;50.274;18.908;2023-04-15T11:12:55;97085.55;;;17.40;39.44
61898;BME280;47850;50.274;18.908;2023-04-15T11:17:56;97093.79;;;16.99;39.04
61898;BME280;47850;50.274;18.908;2023-04-15T11:20:25;97090.46;;;16.77;39.98
61898;BME280;47850;50.274;18.908;2023-04-15T11:22:53;97091.45;;;16.71;40.26
61898;BME280;47850;50.274;18.908;2023-04-15T11:25:25;97090.65;;;16.68;39.50
61898;BME280;47850;50.274;18.908;2023-04-15T11:27:55;97093.65;;;16.68;39.65
61898;BME280;47850;50.274;18.908;2023-04-15T11:30:28;97093.05;;;16.74;40.00
61898;BME280;47850;50.274;18.908;2023-04-15T11:33:04;97092.30;;;16.86;40.52
61898;BME280;47850;50.274;18.908;2023-04-15T11:35:33;97093.27;;;17.01;40.37
61898;BME280;47850;50.274;18.908;2023-04-15T11:38:04;97091.95;;;17.10;39.96
61898;BME280;47850;50.274;18.908;2023-04-15T11:40:35;97094.00;;;17.11;39.18
61898;BME280;47850;50.274;18.908;2023-04-15T11:45:46;97098.38;;;17.04;39.76
61898;BME280;47850;50.274;18.908;2023-04-15T11:48:14;97096.50;;;17.12;39.83
61898;BME280;47850;50.274;18.908;2023-04-15T11:50:42;97098.09;;;17.16;38.78
61898;BME280;47850;50.274;18.908;2023-04-15T11:53:11;97101.16;;;17.11;37.63
61898;BME280;47850;50.274;18.908;2023-04-15T11:55:45;97102.09;;;16.90;37.54
61898;BME280;47850;50.274;18.908;2023-04-15T12:00:47;97104.80;;;16.64;37.70
61898;BME280;47850;50.274;18.908;2023-04-15T12:03:23;97108.13;;;16.57;37.80
61898;BME280;47850;50.274;18.908;2023-04-15T12:11:44;97112.31;;;16.45;37.43
61898;BME280;47850;50.274;18.908;2023-04-15T12:14:31;97112.05;;;16.27;37.62
61898;BME280;47850;50.274;18.908;2023-04-15T12:17:01;97115.54;;;16.09;37.63
61898;BME280;47850;50.274;18.908;2023-04-15T12:19:34;97117.46;;;15.92;37.41
61898;BME280;47850;50.274;18.908;2023-04-15T12:22:04;97119.76;;;15.79;38.45
61898;BME280;47850;50.274;18.908;2023-04-15T12:24:34;97116.58;;;15.74;38.30
61898;BME280;47850;50.274;18.908;2023-04-15T12:27:06;97118.15;;;15.66;37.93
61898;BME280;47850;50.274;18.908;2023-04-15T12:29:35;97122.55;;;15.58;38.08
61898;BME280;47850;50.274;18.908;2023-04-15T12:34:35;97119.21;;;15.54;38.58
61898;BME280;47850;50.274;18.908;2023-04-15T12:37:06;97122.34;;;15.61;38.62
61898;BME280;47850;50.274;18.908;2023-04-15T12:39:40;97121.94;;;15.68;38.44
61898;BME280;47850;50.274;18.908;2023-04-15T12:42:10;97124.90;;;15.74;38.91
61898;BME280;47850;50.274;18.908;2023-04-15T12:44:38;97124.16;;;15.71;39.43
61898;BME280;47850;50.274;18.908;2023-04-15T12:47:08;97124.95;;;15.63;39.68
61898;BME280;47850;50.274;18.908;2023-04-15T12:49:36;97125.24;;;15.60;39.79
61898;BME280;47850;50.274;18.908;2023-04-15T12:52:05;97119.56;;;15.66;39.75
61898;BME280;47850;50.274;18.908;2023-04-15T12:54:33;97120.16;;;15.70;40.16
61898;BME280;47850;50.274;18.908;2023-04-15T12:57:01;97121.21;;;15.82;40.25
61898;BME280;47850;50.274;18.908;2023-04-15T12:59:29;97122.08;;;15.90;40.62
61898;BME280;47850;50.274;18.908;2023-04-15T13:01:57;97120.48;;;15.96;40.35
61898;BME280;47850;50.274;18.908;2023-04-15T13:04:27;97122.93;;;15.98;40.61
61898;BME280;47850;50.274;18.908;2023-04-15T13:06:57;97122.02;;;16.03;40.52
61898;BME280;47850;50.274;18.908;2023-04-15T13:09:25;97123.23;;;16.08;40.28
61898;BME280;47850;50.274;18.908;2023-04-15T13:11:53;97120.09;;;16.31;40.02
61898;BME280;47850;50.274;18.908;2023-04-15T13:14:22;97119.42;;;17.60;38.77
61898;BME280;47850;50.274;18.908;2023-04-15T13:16:50;97122.13;;;19.12;37.18
61898;BME280;47850;50.274;18.908;2023-04-15T13:19:18;97121.63;;;20.41;34.83
61898;BME280;47850;50.274;18.908;2023-04-15T13:21:45;97125.52;;;21.77;33.25
61898;BME280;47850;50.274;18.908;2023-04-15T13:24:13;97128.16;;;23.24;31.99
61898;BME280;47850;50.274;18.908;2023-04-15T13:26:41;97128.58;;;23.61;31.07
61898;BME280;47850;50.274;18.908;2023-04-15T13:29:09;97125.61;;;24.13;29.93
61898;BME280;47850;50.274;18.908;2023-04-15T13:31:38;97126.79;;;24.83;29.14
61898;BME280;47850;50.274;18.908;2023-04-15T13:34:05;97130.91;;;24.65;28.64